Disclaimer

Please do not use the information listed here in-flight or in-navigation, as they are not provided to us by the airports but are provided by volunteers, so they might be outdated.

Search


Regions


Airport information page

Radio informations:
Brisbane Center - 120.55 MHz
Common traffic adv. frequency (CTAF) - 118.1 MHz

Airport informations:
Latitude: 31° 53' 19.00" S
Longitude: 152° 30' 50.00" E
Elevation: 38 feet - 12 meters
Operating hours: N/A
Operating agency: Civil government, landing fees and diplomatic clearance may be required
Timezone: UTC+10(+11DT)
Fuel: Jet A1, without icing nhibitor.

100/130 MIL Spec, low lead, aviation gasoline (BLUE)

Runway information:
04/22 - 4934 x 98 feet< - >1504 x 30 meters
12/30 - 1850 x 60 feet< - >564 x 18 meters

Recent METARs:
YTRE 142000Z AUTO 00000KT //// // ////// 19/19 Q1016
YTRE 142000Z AUTO 00000KT //// // ////// 19/19 Q1016
YTRE 142100Z AUTO 30001KT //// // NCD 22/19 Q1016

Airport on the map: